Aérodrome :
LOGIN :

S'inscrire | Disclaimer

   EN    FR    IT 

 










Légende :    VFR   VFR Marginal   IFR   IFR Intensif   IFR Très Intensif
Visi : 
Plafond : 
>= 8 km
>= 3000ft
5 à 8 km
1000 à 3000 ft
1500m à 5 km
500 à 1000 ft
800 à 1500m
200 à 500 ft
< 800m
< 200 ft
Symboles :   Orages  Brouillard  Fortes neiges  Fortes précipitations  Vent > 20 kt
SIGMETs :   Divers  Orages  Givrage  Turbulence  Onde Orograph.  Cendres Volcan.







- Altitude de l'aérodrome : 202 ft
- Code IATA : LGW
- Voir les cartes d'approche


EGKK - London Gatwick

DERNIER METAR :
  • 180820Z 20005KT 160V230 5000 BR BKN006 09/08 Q1016

METARs EXPIRÉS :
  • 180750Z 20006KT 170V250 4000 BR BKN005 08/08 Q1016
  • 180720Z 19005KT 4000 BR OVC004 08/08 Q1015
  • 180650Z 20006KT 4500 BR BKN004 08/08 Q1015
  • 180620Z 18005KT 4500 BR BKN006 08/08 Q1015
  • 180550Z 18004KT 4100 BR SCT007 08/08 Q1015

TAF AMD TAF EGKK
Valide du 18 à 07h jusqu'au 19 à 12h UTC


180717Z 1807/1912 20008KT 9999 SCT018
PROB30
TEMPO 1807/1810 3000 BR BKN004
TEMPO 1810/1821 7000 SHRA BKN012
PROB40
TEMPO 1902/1909 3000 BR BKN004
Pas de NOTAMs connus pour ce terrain.



MET'MAP, la Météo Aéronautique d'un coup d'oeil ! - Copyright ORBIFLY Décembre 2007 - Disclaimer

ORBIFLY MET'MAP TEAM :

Programmation & Développement : Alexandra Zaïnal
Conception & Développement : Baudouin d'Aumeries
Co-Programmation & Développement : Marc-Olivier Méhu
Soutien technique & logistique : Manuel Goepfert

Contact : metmap@orbifly.com




SOURCES & CREDITS :

   NOAA